createdAt,value
2019-05-23T00:00:49.532Z,21.80
2019-05-23T00:03:21.792Z,22.40
2019-05-23T00:05:56.143Z,21.60
2019-05-23T00:08:28.057Z,22.53
2019-05-23T00:11:16.465Z,23.00
2019-05-23T00:13:57.704Z,22.90
2019-05-23T00:16:28.385Z,21.40
2019-05-23T00:18:58.595Z,22.37
2019-05-23T00:21:28.478Z,23.07
2019-05-23T00:23:58.036Z,22.50
2019-05-23T00:26:27.613Z,21.23
2019-05-23T00:29:09.543Z,22.17
2019-05-23T00:31:43.020Z,23.00
2019-05-23T00:34:14.598Z,23.00
2019-05-23T00:36:44.606Z,23.13
2019-05-23T00:39:15.940Z,22.97
2019-05-23T00:41:45.866Z,24.60
2019-05-23T00:44:16.310Z,24.90
2019-05-23T00:46:46.469Z,25.50
2019-05-23T00:49:16.831Z,23.77
2019-05-23T00:51:46.692Z,22.87
2019-05-23T00:54:17.009Z,23.13
2019-05-23T00:56:47.630Z,23.10
2019-05-23T00:59:26.668Z,22.03
2019-05-23T01:01:49.253Z,22.90
2019-05-23T01:04:19.338Z,23.33
2019-05-23T01:06:49.345Z,24.13
2019-05-23T01:09:20.416Z,25.33
2019-05-23T01:11:49.896Z,24.57
2019-05-23T01:14:20.449Z,26.23
2019-05-23T01:16:51.320Z,24.67
2019-05-23T01:19:21.278Z,23.67
2019-05-23T01:22:00.041Z,24.07
2019-05-23T01:24:35.303Z,24.07
2019-05-23T01:27:05.918Z,24.77
2019-05-23T01:29:49.623Z,25.80
2019-05-23T01:32:34.923Z,26.13
2019-05-23T01:35:07.225Z,26.27
2019-05-23T01:37:36.605Z,25.27
2019-05-23T01:40:07.028Z,25.93
2019-05-23T01:42:38.462Z,24.97
2019-05-23T01:45:09.570Z,24.77
2019-05-23T01:47:39.238Z,24.87
2019-05-23T01:50:11.058Z,26.77
2019-05-23T01:52:43.010Z,26.23
2019-05-23T01:55:12.853Z,24.47
2019-05-23T01:57:42.668Z,25.87
2019-05-23T02:00:13.783Z,28.37
2019-05-23T02:02:43.438Z,26.90
2019-05-23T02:05:13.924Z,23.60
2019-05-23T02:07:43.561Z,26.93
2019-05-23T02:10:13.214Z,26.63
2019-05-23T02:12:43.767Z,27.60
2019-05-23T02:15:14.043Z,25.70
2019-05-23T02:17:43.733Z,25.53
2019-05-23T02:20:16.347Z,26.20
2019-05-23T02:22:47.256Z,25.27
2019-05-23T02:25:19.401Z,27.60
2019-05-23T02:27:49.783Z,25.53
2019-05-23T02:30:33.779Z,25.03
2019-05-23T02:32:54.277Z,25.20
2019-05-23T02:35:23.766Z,25.33
2019-05-23T02:38:21.281Z,26.13
2019-05-23T02:41:15.693Z,26.03
2019-05-23T02:43:48.942Z,24.87
2019-05-23T02:46:25.088Z,25.77
2019-05-23T02:48:59.003Z,25.67
2019-05-23T02:51:32.495Z,24.77
2019-05-23T02:54:04.115Z,26.60
2019-05-23T02:56:36.943Z,23.80
2019-05-23T02:59:15.779Z,23.63
2019-05-23T03:02:24.154Z,23.67
2019-05-23T03:04:54.110Z,24.20
2019-05-23T03:07:27.743Z,25.20
2019-05-23T03:09:59.275Z,23.57
2019-05-23T03:12:31.380Z,24.37
2019-05-23T03:15:02.998Z,24.97
2019-05-23T03:17:35.547Z,25.47
2019-05-23T03:20:08.282Z,24.53
2019-05-23T03:22:48.625Z,24.70
2019-05-23T03:25:45.909Z,25.53
2019-05-23T03:28:18.554Z,24.73
2019-05-23T03:30:49.629Z,25.13
2019-05-23T03:33:19.961Z,23.83
2019-05-23T03:35:50.959Z,26.33
2019-05-23T03:38:21.241Z,25.53
2019-05-23T03:40:51.164Z,25.57
2019-05-23T03:43:21.138Z,24.97
2019-05-23T03:45:53.446Z,24.30
2019-05-23T03:48:24.331Z,22.20
2019-05-23T03:50:55.365Z,24.83
2019-05-23T03:53:27.986Z,25.10
2019-05-23T03:55:59.535Z,24.50
2019-05-23T03:58:31.613Z,25.17
2019-05-23T04:01:02.788Z,24.33
2019-05-23T04:03:32.942Z,24.70
2019-05-23T04:06:02.619Z,25.10
2019-05-23T04:08:32.767Z,25.70
2019-05-23T04:11:03.099Z,23.90
2019-05-23T04:13:32.521Z,24.47
2019-05-23T04:16:02.626Z,24.73
2019-05-23T04:18:32.316Z,25.23
2019-05-23T04:21:01.899Z,24.03
2019-05-23T04:23:33.483Z,24.37
2019-05-23T04:26:03.583Z,25.23
2019-05-23T04:28:33.421Z,23.87
2019-05-23T04:31:03.746Z,23.40
2019-05-23T04:33:33.740Z,22.73
2019-05-23T04:36:04.298Z,23.90
2019-05-23T04:38:36.497Z,22.57
2019-05-23T04:41:05.976Z,23.93
2019-05-23T04:43:35.422Z,22.93
2019-05-23T04:46:05.052Z,23.13
2019-05-23T04:48:34.746Z,22.80
2019-05-23T04:51:05.083Z,21.20
2019-05-23T04:53:35.629Z,20.30
2019-05-23T04:56:06.228Z,20.40
2019-05-23T04:58:36.258Z,19.83
2019-05-23T05:01:07.226Z,21.23
2019-05-23T05:03:36.828Z,19.60
2019-05-23T05:06:06.903Z,19.53
2019-05-23T05:08:36.628Z,19.00
2019-05-23T05:11:07.178Z,19.87
2019-05-23T05:13:36.865Z,18.50
2019-05-23T05:16:06.602Z,19.70
2019-05-23T05:18:37.001Z,18.07
2019-05-23T05:21:06.887Z,18.67
2019-05-23T05:23:37.040Z,18.17
2019-05-23T05:26:10.013Z,18.60
2019-05-23T05:28:39.626Z,17.40
2019-05-23T05:31:09.965Z,16.90
2019-05-23T05:33:39.781Z,17.47
2019-05-23T05:36:09.322Z,18.27
2019-05-23T05:38:39.083Z,16.87
2019-05-23T05:41:08.850Z,15.90
2019-05-23T05:43:39.384Z,15.00
2019-05-23T05:46:09.321Z,15.97
2019-05-23T05:48:38.983Z,16.60
2019-05-23T05:51:08.477Z,15.47
2019-05-23T05:53:38.660Z,15.57
2019-05-23T05:56:08.542Z,15.83
2019-05-23T05:58:38.018Z,15.23
2019-05-23T06:01:11.075Z,16.63
2019-05-23T06:03:42.054Z,14.57
2019-05-23T06:06:29.097Z,16.07
2019-05-23T06:09:00.734Z,14.83
2019-05-23T06:11:30.309Z,15.60
2019-05-23T06:13:59.789Z,16.27
2019-05-23T06:16:29.554Z,16.27
2019-05-23T06:18:59.033Z,15.83
2019-05-23T06:21:30.782Z,18.03
2019-05-23T06:24:00.978Z,16.57
2019-05-23T06:26:31.481Z,16.77
2019-05-23T06:29:01.134Z,15.53
2019-05-23T06:31:31.903Z,17.60
2019-05-23T06:34:01.394Z,17.40
2019-05-23T06:36:31.375Z,18.23
2019-05-23T06:39:00.827Z,18.43
2019-05-23T06:41:31.282Z,17.83
2019-05-23T06:44:01.037Z,17.87
2019-05-23T06:46:30.967Z,19.70
2019-05-23T06:49:00.698Z,19.10
2019-05-23T06:51:30.987Z,19.90
2019-05-23T06:54:00.678Z,22.53
2019-05-23T06:56:30.445Z,23.73
2019-05-23T06:58:59.888Z,21.50
2019-05-23T07:01:29.789Z,24.53
2019-05-23T07:03:59.624Z,23.53
2019-05-23T07:06:31.231Z,22.87
2019-05-23T07:09:01.133Z,21.90
2019-05-23T07:11:30.757Z,20.23
2019-05-23T07:14:00.185Z,20.43
2019-05-23T07:16:29.804Z,19.90
2019-05-23T07:18:59.502Z,19.60
2019-05-23T07:21:29.453Z,20.07
2019-05-23T07:23:58.923Z,21.77
2019-05-23T07:26:28.599Z,19.83
2019-05-23T07:28:58.160Z,20.53
2019-05-23T07:31:27.634Z,17.33
2019-05-23T07:34:02.292Z,17.10
2019-05-23T07:36:28.605Z,20.37
2019-05-23T07:38:58.282Z,17.90
2019-05-23T07:41:27.746Z,17.23
2019-05-23T07:43:57.251Z,19.50
2019-05-23T07:46:26.731Z,16.23
2019-05-23T07:48:59.000Z,16.73
2019-05-23T07:51:29.836Z,15.47
2019-05-23T07:54:09.510Z,16.30
2019-05-23T07:56:39.984Z,16.30
2019-05-23T07:59:09.484Z,16.67
2019-05-23T08:01:41.413Z,16.33
2019-05-23T08:04:20.986Z,16.17
2019-05-23T08:06:42.247Z,17.37
2019-05-23T08:09:13.782Z,17.00
2019-05-23T08:11:43.357Z,15.93
2019-05-23T08:14:13.345Z,17.07
2019-05-23T08:16:43.173Z,16.80
2019-05-23T08:19:19.195Z,17.23
2019-05-23T08:21:44.181Z,16.37
2019-05-23T08:24:15.388Z,13.83
2019-05-23T08:26:46.533Z,13.17
2019-05-23T08:29:25.899Z,13.07
2019-05-23T08:31:47.379Z,13.33
2019-05-23T08:34:19.587Z,13.03
2019-05-23T08:36:49.064Z,12.28
2019-05-23T08:39:20.210Z,11.93
2019-05-23T08:41:50.089Z,11.10
2019-05-23T08:44:20.241Z,10.58
2019-05-23T08:46:49.748Z,9.23
2019-05-23T08:49:19.362Z,10.00
2019-05-23T08:51:49.148Z,9.75
2019-05-23T08:54:18.629Z,9.98
2019-05-23T08:56:48.065Z,10.18
2019-05-23T08:59:17.715Z,9.25
2019-05-23T09:01:48.086Z,10.08
2019-05-23T09:04:17.473Z,10.00
2019-05-23T09:06:47.231Z,9.45
2019-05-23T09:09:29.332Z,9.15
2019-05-23T09:11:48.422Z,8.90
2019-05-23T09:14:18.150Z,9.00
2019-05-23T09:16:47.806Z,9.05
2019-05-23T09:19:17.674Z,8.83
2019-05-23T09:21:47.519Z,8.63
2019-05-23T09:24:16.999Z,7.72
2019-05-23T09:26:48.292Z,8.48
2019-05-23T09:29:18.122Z,8.00
2019-05-23T09:31:47.569Z,8.88
2019-05-23T09:34:17.674Z,10.65
2019-05-23T09:36:47.506Z,10.45
2019-05-23T09:39:18.669Z,11.68
2019-05-23T09:41:48.291Z,10.75
2019-05-23T09:44:18.061Z,11.57
2019-05-23T09:46:47.501Z,10.48
2019-05-23T09:49:16.996Z,10.35
2019-05-23T09:51:47.747Z,10.65
2019-05-23T09:54:17.972Z,10.38
2019-05-23T09:56:47.535Z,10.68
2019-05-23T09:59:17.012Z,11.03
2019-05-23T10:01:46.723Z,10.05
2019-05-23T10:04:16.177Z,10.20
2019-05-23T10:06:46.396Z,9.93
2019-05-23T10:09:16.261Z,10.70
2019-05-23T10:11:45.698Z,11.57
2019-05-23T10:14:20.470Z,11.12
2019-05-23T10:16:50.302Z,11.93
2019-05-23T10:19:19.705Z,11.00
2019-05-23T10:21:49.653Z,10.88
2019-05-23T10:24:19.452Z,9.68
2019-05-23T10:26:48.938Z,11.40
2019-05-23T10:29:18.755Z,11.95
2019-05-23T10:31:48.236Z,12.07
2019-05-23T10:34:17.731Z,10.20
2019-05-23T10:36:47.511Z,12.05
2019-05-23T10:39:19.514Z,12.60
2019-05-23T10:41:48.906Z,11.70
2019-05-23T10:44:18.521Z,12.23
2019-05-23T10:46:48.774Z,12.20
2019-05-23T10:49:18.186Z,10.72
2019-05-23T10:51:47.905Z,10.88
2019-05-23T10:54:17.385Z,12.68
2019-05-23T10:56:46.822Z,12.28
2019-05-23T10:59:16.422Z,12.28
2019-05-23T11:01:46.209Z,11.50
2019-05-23T11:04:16.306Z,9.73
2019-05-23T11:06:45.815Z,11.12
2019-05-23T11:09:15.879Z,11.15
2019-05-23T11:11:45.732Z,11.68
2019-05-23T11:14:15.833Z,10.82
2019-05-23T11:16:45.596Z,12.30
2019-05-23T11:19:15.617Z,12.53
2019-05-23T11:21:45.129Z,11.20
2019-05-23T11:24:14.688Z,10.65
2019-05-23T11:26:45.451Z,12.28
2019-05-23T11:29:15.255Z,10.25
2019-05-23T11:31:45.415Z,10.03
2019-05-23T11:34:15.541Z,11.48
2019-05-23T11:36:45.038Z,10.00
2019-05-23T11:39:15.270Z,10.15
2019-05-23T11:41:44.758Z,9.43
2019-05-23T11:44:14.492Z,8.45
2019-05-23T11:46:45.153Z,10.08
2019-05-23T11:49:14.731Z,9.45
2019-05-23T11:51:44.593Z,10.25
2019-05-23T11:54:15.346Z,9.80
2019-05-23T11:56:45.535Z,9.88
2019-05-23T11:59:15.363Z,10.28
2019-05-23T12:02:19.186Z,10.28
2019-05-23T12:04:48.637Z,10.23
2019-05-23T12:07:22.778Z,9.73
2019-05-23T12:09:53.571Z,10.18
2019-05-23T12:12:23.779Z,9.10
2019-05-23T12:14:53.623Z,9.70
2019-05-23T12:17:24.622Z,9.15
2019-05-23T12:19:54.437Z,8.60
2019-05-23T12:22:24.219Z,9.25
2019-05-23T12:24:53.829Z,9.10
2019-05-23T12:27:23.283Z,9.43
2019-05-23T12:29:52.910Z,8.55
2019-05-23T12:32:22.588Z,7.85
2019-05-23T12:35:09.233Z,7.92
2019-05-23T12:37:24.204Z,8.73
2019-05-23T12:39:54.176Z,9.68
2019-05-23T12:42:23.819Z,8.75
2019-05-23T12:44:53.598Z,8.80
2019-05-23T12:47:34.463Z,9.08
2019-05-23T12:50:07.902Z,8.85
2019-05-23T12:52:37.370Z,9.45
2019-05-23T12:55:08.538Z,8.80
2019-05-23T12:57:38.130Z,9.00
2019-05-23T13:00:12.118Z,8.58
2019-05-23T13:02:41.686Z,9.00
2019-05-23T13:05:12.046Z,9.00
2019-05-23T13:07:41.797Z,8.30
2019-05-23T13:10:11.628Z,8.70
2019-05-23T13:12:41.436Z,9.63
2019-05-23T13:15:11.502Z,10.00
2019-05-23T13:17:40.956Z,9.70
2019-05-23T13:20:11.459Z,8.35
2019-05-23T13:22:40.905Z,8.80
2019-05-23T13:25:10.919Z,9.30
2019-05-23T13:27:43.445Z,9.63
2019-05-23T13:30:13.919Z,9.05
2019-05-23T13:32:43.561Z,8.63
2019-05-23T13:35:13.275Z,9.88
2019-05-23T13:37:52.870Z,9.20
2019-05-23T13:40:14.841Z,8.43
2019-05-23T13:42:44.657Z,8.30
2019-05-23T13:45:15.139Z,8.08
2019-05-23T13:47:45.392Z,9.30
2019-05-23T13:50:15.811Z,9.08
2019-05-23T13:52:45.583Z,8.60
2019-05-23T13:55:15.466Z,8.50
2019-05-23T13:57:44.964Z,7.78
2019-05-23T14:00:16.403Z,8.95
2019-05-23T14:02:46.391Z,9.50
2019-05-23T14:05:19.143Z,7.97
2019-05-23T14:07:48.097Z,10.82
2019-05-23T14:10:18.469Z,8.60
2019-05-23T14:12:48.450Z,9.03
2019-05-23T14:15:21.646Z,8.70
2019-05-23T14:17:51.169Z,8.23
2019-05-23T14:20:21.061Z,9.00
2019-05-23T14:22:55.025Z,9.60
2019-05-23T14:25:24.734Z,9.20
2019-05-23T14:28:02.768Z,8.50
2019-05-23T14:30:53.502Z,8.10
2019-05-23T14:33:35.574Z,8.85
2019-05-23T14:36:08.923Z,7.97
2019-05-23T14:38:38.670Z,8.00
2019-05-23T14:41:12.417Z,7.97
2019-05-23T14:43:42.211Z,8.38
2019-05-23T14:46:14.454Z,8.30
2019-05-23T14:49:09.858Z,9.15
2019-05-23T14:51:50.129Z,8.10
2019-05-23T14:54:36.021Z,8.60
2019-05-23T14:57:06.530Z,8.63
2019-05-23T14:59:36.560Z,8.30
2019-05-23T15:02:08.244Z,8.88
2019-05-23T15:04:38.083Z,7.83
2019-05-23T15:07:07.787Z,8.58
2019-05-23T15:09:37.254Z,7.22
2019-05-23T15:12:07.762Z,9.33
2019-05-23T15:14:37.239Z,9.05
2019-05-23T15:17:07.165Z,10.63
2019-05-23T15:19:42.187Z,7.90
2019-05-23T15:22:07.770Z,9.40
2019-05-23T15:24:37.577Z,9.23
2019-05-23T15:27:07.158Z,9.58
2019-05-23T15:29:36.582Z,7.03
2019-05-23T15:32:05.999Z,8.98
2019-05-23T15:34:35.595Z,8.13
2019-05-23T15:37:05.171Z,7.58
2019-05-23T15:39:35.054Z,7.45
2019-05-23T15:42:04.793Z,7.03
2019-05-23T15:44:36.866Z,8.40
2019-05-23T15:47:06.842Z,7.40
2019-05-23T15:49:37.265Z,9.03
2019-05-23T15:52:24.765Z,8.50
2019-05-23T15:55:01.432Z,8.40
2019-05-23T15:57:40.474Z,10.40
2019-05-23T16:00:27.643Z,13.43
2019-05-23T16:03:07.830Z,9.05
2019-05-23T16:05:37.417Z,7.87
2019-05-23T16:08:09.872Z,8.38
2019-05-23T16:10:39.806Z,7.47
2019-05-23T16:13:09.555Z,7.30
2019-05-23T16:15:39.185Z,7.50
2019-05-23T16:18:08.694Z,8.73
2019-05-23T16:20:38.552Z,7.60
2019-05-23T16:23:08.581Z,6.90
2019-05-23T16:25:38.582Z,7.50
2019-05-23T16:28:08.354Z,6.83
2019-05-23T16:30:38.760Z,6.92
2019-05-23T16:33:08.510Z,6.40
2019-05-23T16:35:37.996Z,6.40
2019-05-23T16:38:10.134Z,7.47
2019-05-23T16:40:39.612Z,7.62
2019-05-23T16:43:09.384Z,7.05
2019-05-23T16:45:38.862Z,7.00
2019-05-23T16:48:08.594Z,6.70
2019-05-23T16:50:38.034Z,6.42
2019-05-23T16:53:07.542Z,6.62
2019-05-23T16:55:44.491Z,6.15
2019-05-23T16:58:35.751Z,6.40
2019-05-23T17:01:24.933Z,6.47
2019-05-23T17:04:03.003Z,6.62
2019-05-23T17:06:57.483Z,6.20
2019-05-23T17:10:06.647Z,6.20
2019-05-23T17:12:56.627Z,6.20
2019-05-23T17:15:47.772Z,6.10
2019-05-23T17:18:27.094Z,6.62
2019-05-23T17:21:05.655Z,6.45
2019-05-23T17:23:52.718Z,5.92
2019-05-23T17:26:33.332Z,7.15
2019-05-23T17:29:05.413Z,7.10
2019-05-23T17:31:37.577Z,7.90
2019-05-23T17:34:07.864Z,7.75
2019-05-23T17:36:37.992Z,6.83
2019-05-23T17:39:10.309Z,6.87
2019-05-23T17:41:40.059Z,8.63
2019-05-23T17:44:09.744Z,8.13
2019-05-23T17:46:39.635Z,7.15
2019-05-23T17:49:09.536Z,7.00
2019-05-23T17:51:39.569Z,9.65
2019-05-23T17:54:09.929Z,5.50
2019-05-23T17:56:39.996Z,8.87
2019-05-23T17:59:12.477Z,6.13
2019-05-23T18:01:42.765Z,8.63
2019-05-23T18:04:16.277Z,8.97
2019-05-23T18:06:45.870Z,8.20
2019-05-23T18:09:15.897Z,5.80
2019-05-23T18:11:45.687Z,9.53
2019-05-23T18:14:16.302Z,6.90
2019-05-23T18:16:45.943Z,7.30
2019-05-23T18:19:16.492Z,6.40
2019-05-23T18:21:47.591Z,6.97
2019-05-23T18:24:18.605Z,6.23
2019-05-23T18:26:48.887Z,7.00
2019-05-23T18:29:18.459Z,7.27
2019-05-23T18:31:48.206Z,6.93
2019-05-23T18:34:18.585Z,6.67
2019-05-23T18:36:48.528Z,6.37
2019-05-23T18:39:19.233Z,6.63
2019-05-23T18:41:48.802Z,6.87
2019-05-23T18:44:18.664Z,7.47
2019-05-23T18:46:50.429Z,6.53
2019-05-23T18:49:19.968Z,6.37
2019-05-23T18:51:49.390Z,6.60
2019-05-23T18:54:18.941Z,6.40
2019-05-23T18:56:48.773Z,7.30
2019-05-23T18:59:18.930Z,7.27
2019-05-23T19:01:48.934Z,7.10
2019-05-23T19:04:18.884Z,7.47
2019-05-23T19:06:48.837Z,6.70
2019-05-23T19:09:19.176Z,7.57
2019-05-23T19:11:48.631Z,9.13
2019-05-23T19:14:18.094Z,8.37
2019-05-23T19:16:47.753Z,10.47
2019-05-23T19:19:17.517Z,11.10
2019-05-23T19:21:47.751Z,13.10
2019-05-23T19:24:17.241Z,15.50
2019-05-23T19:26:47.649Z,11.37
2019-05-23T19:29:17.854Z,12.10
2019-05-23T19:31:50.319Z,13.17
2019-05-23T19:34:20.637Z,15.03
2019-05-23T19:36:50.077Z,18.13
2019-05-23T19:39:19.837Z,16.33
2019-05-23T19:41:49.577Z,15.17
2019-05-23T19:44:19.425Z,15.33
2019-05-23T19:46:49.304Z,16.73
2019-05-23T19:49:19.532Z,13.83
2019-05-23T19:51:48.979Z,13.33
2019-05-23T19:54:18.981Z,13.07
2019-05-23T19:56:48.446Z,13.20
2019-05-23T19:59:20.821Z,11.30
2019-05-23T20:02:08.777Z,15.40
2019-05-23T20:04:40.915Z,13.90
2019-05-23T20:07:14.954Z,14.27
2019-05-23T20:09:41.992Z,12.97
2019-05-23T20:12:12.953Z,11.80
2019-05-23T20:14:43.030Z,10.70
2019-05-23T20:17:12.886Z,9.40
2019-05-23T20:19:42.338Z,8.90
2019-05-23T20:22:11.824Z,9.87
2019-05-23T20:24:41.524Z,9.30
2019-05-23T20:27:11.014Z,10.10
2019-05-23T20:29:40.473Z,9.37
2019-05-23T20:32:10.430Z,9.20
2019-05-23T20:34:40.159Z,9.20
2019-05-23T20:37:10.122Z,8.67
2019-05-23T20:39:39.868Z,8.43
2019-05-23T20:42:11.738Z,8.20
2019-05-23T20:44:40.942Z,8.37
2019-05-23T20:47:10.404Z,8.37
2019-05-23T20:49:39.787Z,9.57
2019-05-23T20:52:09.373Z,8.90
2019-05-23T20:54:39.600Z,8.73
2019-05-23T20:57:09.558Z,8.90
2019-05-23T20:59:39.108Z,9.33
2019-05-23T21:02:08.634Z,9.30
2019-05-23T21:04:38.046Z,8.90
2019-05-23T21:07:07.783Z,9.23
2019-05-23T21:09:37.220Z,9.70
2019-05-23T21:12:06.674Z,9.13
2019-05-23T21:14:36.153Z,10.23
2019-05-23T21:17:06.016Z,10.23
2019-05-23T21:19:35.749Z,10.40
2019-05-23T21:22:05.726Z,10.00
2019-05-23T21:24:35.492Z,10.93
2019-05-23T21:27:04.974Z,11.47
2019-05-23T21:29:34.360Z,10.70
2019-05-23T21:32:03.839Z,10.07
2019-05-23T21:34:33.622Z,11.10
2019-05-23T21:37:03.025Z,11.97
2019-05-23T21:39:32.594Z,11.03
2019-05-23T21:42:02.101Z,12.03
2019-05-23T21:44:31.486Z,11.70
2019-05-23T21:47:00.917Z,11.67
2019-05-23T21:49:30.385Z,11.83
2019-05-23T21:51:59.857Z,12.87
2019-05-23T21:54:32.034Z,11.00
2019-05-23T21:57:01.513Z,10.97
2019-05-23T21:59:32.244Z,12.07
2019-05-23T22:02:12.067Z,10.40
2019-05-23T22:04:53.687Z,12.77
2019-05-23T22:07:23.156Z,12.57
2019-05-23T22:09:52.641Z,12.17
2019-05-23T22:12:22.667Z,12.83
2019-05-23T22:14:53.212Z,13.27
2019-05-23T22:17:24.885Z,11.73
2019-05-23T22:19:54.421Z,13.17
2019-05-23T22:22:24.130Z,12.23
2019-05-23T22:24:53.874Z,12.27
2019-05-23T22:27:23.419Z,13.83
2019-05-23T22:29:52.845Z,12.50
2019-05-23T22:32:23.653Z,13.37
2019-05-23T22:35:06.012Z,12.83
2019-05-23T22:37:35.765Z,12.47
2019-05-23T22:40:05.987Z,12.57
2019-05-23T22:42:36.546Z,12.90
2019-05-23T22:45:09.201Z,14.07
2019-05-23T22:47:38.890Z,12.67
2019-05-23T22:50:08.631Z,12.40
2019-05-23T22:52:38.110Z,13.57
2019-05-23T22:55:08.110Z,13.70
2019-05-23T22:57:37.640Z,13.60
2019-05-23T23:00:07.421Z,12.43
2019-05-23T23:02:36.881Z,15.17
2019-05-23T23:05:06.397Z,11.87
2019-05-23T23:07:35.856Z,13.90
2019-05-23T23:10:05.331Z,15.10
2019-05-23T23:12:34.793Z,11.87
2019-05-23T23:15:04.497Z,13.27
2019-05-23T23:17:34.225Z,14.47
2019-05-23T23:20:03.868Z,14.23
2019-05-23T23:22:33.681Z,14.70
2019-05-23T23:25:03.113Z,13.50
2019-05-23T23:27:32.845Z,12.97
2019-05-23T23:30:02.696Z,12.07
2019-05-23T23:32:32.671Z,13.50
2019-05-23T23:35:02.445Z,11.90
2019-05-23T23:37:31.945Z,14.73
2019-05-23T23:40:01.586Z,13.50
2019-05-23T23:42:31.013Z,12.40
2019-05-23T23:45:18.396Z,13.53
2019-05-23T23:48:05.668Z,12.70
2019-05-23T23:50:52.964Z,13.60
2019-05-23T23:53:40.249Z,12.73
2019-05-23T23:56:27.700Z,13.93
2019-05-23T23:58:56.517Z,13.13
